< Typhoon 195820 1958 Season Typhoon 195822 >
Typhoon 195821 (HELEN)
General InformationTrack Information on Google Maps || NewsDisaster Info.ResourceGoogle EarthGE AnimationAtom FeedGeoJSON
Detalied Best Track (Time Zone = UTC)
Year Month Day Hour Lat. Long. Pressure (hPa) Wind (kt) Class Image Chart
1958 9 8 00 10.0 142.0 1008 0 2 -- Chart
1958 9 8 06 10.6 141.6 1002 0 2 -- Chart
1958 9 8 12 11.2 141.4 1002 0 2 -- Chart
1958 9 8 18 11.8 140.7 1002 0 2 -- Chart
1958 9 9 00 13.2 139.6 1000 0 9 -- Chart
1958 9 9 06 14.0 138.6 995 0 9 -- Chart
1958 9 9 12 14.4 137.5 995 0 9 -- Chart
1958 9 9 18 15.2 136.8 990 0 9 -- Chart
1958 9 10 00 15.8 135.5 990 0 9 -- Chart
1958 9 10 06 16.2 134.6 990 0 9 -- Chart
1958 9 10 12 16.6 134.2 990 0 9 -- Chart
1958 9 10 18 16.6 132.8 990 0 9 -- Chart
1958 9 11 00 17.0 132.2 990 0 9 -- Chart
1958 9 11 06 17.6 132.5 985 0 9 -- Chart
1958 9 11 12 18.4 132.6 980 0 9 -- Chart
1958 9 11 18 18.8 131.8 970 0 9 -- Chart
1958 9 12 00 19.3 131.1 960 0 9 -- Chart
1958 9 12 06 19.8 130.5 950 0 9 -- Chart
1958 9 12 12 20.3 130.3 940 0 9 -- Chart
1958 9 12 18 20.6 129.7 930 0 9 -- Chart
1958 9 13 00 21.4 129.3 920 0 9 -- Chart
1958 9 13 06 21.5 129.0 920 0 9 -- Chart
1958 9 13 12 21.9 129.0 920 0 9 -- Chart
1958 9 13 18 22.6 129.0 920 0 9 -- Chart
1958 9 14 00 22.3 129.0 935 0 9 -- Chart
1958 9 14 06 23.8 129.3 935 0 9 -- Chart
1958 9 14 12 24.4 129.4 935 0 9 -- Chart
1958 9 14 18 25.0 129.6 935 0 9 -- Chart
1958 9 15 00 25.4 130.0 940 0 9 -- Chart
1958 9 15 06 26.2 130.8 945 0 9 -- Chart
1958 9 15 12 26.6 131.1 945 0 9 -- Chart
1958 9 15 18 27.2 131.5 945 0 9 -- Chart
1958 9 16 00 27.6 132.1 950 0 9 -- Chart
1958 9 16 06 27.8 132.8 955 0 9 -- Chart
1958 9 16 12 28.2 133.1 955 0 9 -- Chart
1958 9 16 18 28.7 133.4 955 0 9 -- Chart
1958 9 17 00 29.6 134.0 950 0 9 -- Chart
1958 9 17 06 30.6 134.6 950 0 9 -- Chart
1958 9 17 12 32.3 136.0 955 0 9 -- Chart
1958 9 17 18 33.8 137.8 955 0 9 -- Chart
1958 9 18 00 35.7 140.0 962 0 9 -- Chart
1958 9 18 06 38.6 143.0 960 0 9 -- Chart
1958 9 18 12 41.8 145.3 975 0 9 -- Chart
1958 9 18 18 45.8 147.8 975 0 9 -- Chart
1958 9 19 00 50.0 148.9 976 0 6 -- Chart
1958 9 19 06 51.5 147.3 970 0 6 -- Chart
1958 9 19 12 52.3 146.6 970 0 6 -- Chart
1958 9 19 18 53.0 146.0 970 0 6 -- Chart
1958 9 20 00 53.8 146.5 970 0 6 -- Chart
1958 9 20 06 53.5 151.0 984 0 6 -- Chart
1958 9 20 12 54.0 154.0 984 0 6 -- Chart
1958 9 20 18 54.8 159.0 988 0 6 -- Chart
1958 9 21 00 55.0 164.0 984 0 6 -- Chart
1958 9 21 06 55.0 166.0 984 0 6 -- Chart
1958 9 21 12 55.0 168.0 984 0 6 -- Chart
1958 9 21 18 55.0 175.0 984 0 6 -- Chart
1958 9 22 00 54.2 179.0 984 0 6 -- Chart
1958 9 22 06 54.0 181.0 980 0 6 -- Chart
Japan Meteorological Agency Best Track Data | Correction Date : 1989-06-01
< Typhoon 195820 1958 Season Typhoon 195822 >

Help